Aviation Digital Data Service (ADDS)

Output produced by METARs form (1441 UTC 28 August 2015)
found at http://aviationweather.gov/adds/metars/
 
KPGV 281121Z 2812/2912 00000KT P6SM BKN200 
     FM290100 07005KT P6SM SKC AMD LTD TO CLD VIS AND WIND